Time;durP1;ratioP1;P1;durP2;ratioP2;P2;SDS_P1;SDS_P2;PMS_P1;PMS_P2;Temp;Humidity;BMP_temperature;BMP_pressure;BME280_temperature;BME280_humidity;BME280_pressure;Samples;Min_cycle;Max_cycle;Signal;HPM_P1;HPM_P2
2022/06/16 00:01:37;;;;;;;24.20;22.30;;;15.10;99.90;;;;;;5002198;28;20069;-76
2022/06/16 00:04:04;;;;;;;24.52;22.45;;;15.10;99.90;;;;;;5021606;28;20172;-73
2022/06/16 00:06:31;;;;;;;24.27;22.48;;;15.00;99.90;;;;;;5022567;28;20534;-76
2022/06/16 00:08:58;;;;;;;24.20;22.50;;;14.90;99.90;;;;;;4995525;28;20416;-74
2022/06/16 00:11:25;;;;;;;25.17;23.38;;;14.90;99.90;;;;;;4997702;28;20135;-75
2022/06/16 00:13:52;;;;;;;23.80;21.95;;;14.80;99.90;;;;;;5004301;28;20100;-76
2022/06/16 00:16:20;;;;;;;24.02;22.33;;;14.80;99.90;;;;;;5003915;28;20536;-75
2022/06/16 00:18:47;;;;;;;23.23;21.60;;;14.80;99.90;;;;;;5003352;28;20385;-75
2022/06/16 00:21:15;;;;;;;23.95;22.08;;;14.60;99.90;;;;;;5003190;28;20325;-76
2022/06/16 00:23:42;;;;;;;23.77;22.02;;;14.50;99.90;;;;;;5018059;28;20038;-76
2022/06/16 00:26:18;;;;;;;23.90;22.17;;;14.50;99.90;;;;;;5011002;28;20056;-74
2022/06/16 00:28:48;;;;;;;24.10;22.30;;;14.40;99.90;;;;;;4990118;28;20050;-77
2022/06/16 00:31:18;;;;;;;24.27;22.38;;;14.40;99.90;;;;;;5013901;23;20328;-72
2022/06/16 00:33:46;;;;;;;24.20;22.55;;;14.30;99.90;;;;;;5022744;28;20520;-73
2022/06/16 00:36:14;;;;;;;25.35;23.13;;;14.30;99.90;;;;;;5024582;28;20500;-72
2022/06/16 00:38:41;;;;;;;24.20;22.63;;;14.30;99.90;;;;;;5012999;28;20179;-73
2022/06/16 00:41:09;;;;;;;27.33;25.25;;;14.30;99.90;;;;;;4995238;28;20115;-73
2022/06/16 00:43:36;;;;;;;26.00;24.08;;;14.30;99.90;;;;;;5024879;28;20042;-72
2022/06/16 00:46:10;;;;;;;26.35;24.10;;;14.30;99.90;;;;;;5026803;28;20049;-72
2022/06/16 00:48:41;;;;;;;25.77;24.08;;;14.30;99.90;;;;;;5007811;28;20076;-72
2022/06/16 00:51:14;;;;;;;26.95;24.67;;;14.20;99.90;;;;;;5006804;28;20046;-73
2022/06/16 00:53:42;;;;;;;26.13;24.25;;;14.20;99.90;;;;;;4998801;28;20053;-73
2022/06/16 00:56:17;;;;;;;25.80;23.98;;;14.20;99.90;;;;;;4996107;28;20269;-73
2022/06/16 00:58:48;;;;;;;26.15;24.55;;;14.20;99.90;;;;;;5000607;28;20058;-73
2022/06/16 01:01:20;;;;;;;26.10;24.10;;;14.10;99.90;;;;;;5011492;28;20050;-72
2022/06/16 01:06:35;;;;;;;26.38;24.55;;;14.10;99.90;;;;;;5025535;28;20470;-73
2022/06/16 01:09:10;;;;;;;26.10;24.20;;;14.20;99.90;;;;;;5022693;28;20054;-72
2022/06/16 01:15:00;;;;;;;26.55;24.58;;;14.10;99.90;;;;;;5006780;28;20056;-72
2022/06/16 01:17:46;;;;;;;25.70;23.90;;;14.10;99.90;;;;;;5004249;28;20057;-72
2022/06/16 01:20:29;;;;;;;26.75;24.40;;;13.90;99.90;;;;;;4988281;28;20085;-73
2022/06/16 01:23:24;;;;;;;26.73;24.70;;;13.90;99.90;;;;;;4991850;28;20073;-73
2022/06/16 01:26:19;;;;;;;28.93;25.93;;;13.90;99.90;;;;;;5002817;28;20334;-72
2022/06/16 01:29:10;;;;;;;29.05;26.58;;;13.90;99.90;;;;;;4999684;28;20050;-72
2022/06/16 01:31:55;;;;;;;28.42;26.50;;;13.90;99.90;;;;;;5000425;28;20508;-72
2022/06/16 01:35:04;;;;;;;28.55;26.52;;;13.80;99.90;;;;;;5003560;28;20370;-73
2022/06/16 01:38:04;;;;;;;28.70;26.55;;;13.80;99.90;;;;;;5003532;28;20045;-72
2022/06/16 01:40:45;;;;;;;28.05;25.85;;;13.80;99.90;;;;;;4993691;28;20053;-72
2022/06/16 01:43:39;;;;;;;28.27;26.08;;;13.80;99.90;;;;;;5001478;28;20050;-72
2022/06/16 01:46:23;;;;;;;29.50;26.87;;;13.80;99.90;;;;;;5004031;28;20042;-71
2022/06/16 01:49:33;;;;;;;28.10;26.00;;;13.80;99.90;;;;;;5004141;28;20764;-72
2022/06/16 01:52:08;;;;;;;27.60;25.67;;;13.80;99.90;;;;;;5004418;28;20038;-73
2022/06/16 01:54:37;;;;;;;;;;;13.70;99.90;;;;;;4994355;28;20041;-72
2022/06/16 01:57:17;;;;;;;29.38;26.80;;;13.80;99.90;;;;;;4986333;28;19940;-72
2022/06/16 02:00:10;;;;;;;28.02;26.13;;;13.90;99.90;;;;;;4993774;28;20084;-72
2022/06/16 02:02:54;;;;;;;29.17;26.98;;;13.80;99.90;;;;;;5004690;28;20143;-73
2022/06/16 02:05:27;;;;;;;28.83;26.58;;;13.90;99.90;;;;;;4987416;28;20046;-73
2022/06/16 02:08:05;;;;;;;29.13;26.83;;;13.90;99.90;;;;;;5003249;28;20111;-72
2022/06/16 02:10:38;;;;;;;29.50;27.30;;;13.90;99.90;;;;;;4994943;28;20050;-72
2022/06/16 02:13:07;;;;;;;29.65;27.23;;;14.00;99.90;;;;;;4987976;28;20103;-72
2022/06/16 02:15:55;;;;;;;29.25;27.15;;;13.90;99.90;;;;;;5000747;28;20100;-72
2022/06/16 02:18:27;;;;;;;29.23;26.92;;;13.70;99.90;;;;;;5003979;28;20128;-72
2022/06/16 02:20:59;;;;;;;29.08;26.88;;;13.60;99.90;;;;;;5001126;28;20632;-74
2022/06/16 02:23:26;;;;;;;29.65;27.33;;;13.40;99.90;;;;;;4995383;28;20049;-74
2022/06/16 02:25:56;;;;;;;28.70;26.67;;;13.50;99.90;;;;;;5000982;28;20092;-73
2022/06/16 02:28:24;;;;;;;29.42;27.23;;;13.50;99.90;;;;;;5002764;28;20049;-73
2022/06/16 02:31:20;;;;;;;29.45;27.00;;;13.50;99.90;;;;;;5002760;28;20038;-73
2022/06/16 02:34:16;;;;;;;29.77;27.40;;;13.30;99.90;;;;;;5003405;28;20400;-74
2022/06/16 02:36:49;;;;;;;29.05;26.77;;;13.20;99.90;;;;;;5002002;28;20135;-73
2022/06/16 02:39:40;;;;;;;28.25;26.25;;;13.40;99.90;;;;;;5000062;28;20049;-74
2022/06/16 02:42:26;;;;;;;30.52;27.40;;;13.10;99.90;;;;;;4993889;28;20054;-73
2022/06/16 02:45:36;;;;;;;29.30;27.00;;;13.20;99.90;;;;;;4996843;28;20061;-73
2022/06/16 02:48:12;;;;;;;30.02;27.80;;;13.10;99.90;;;;;;4975882;28;20050;-73
2022/06/16 02:51:03;;;;;;;30.45;27.95;;;13.10;99.90;;;;;;4983012;28;20078;-73
2022/06/16 02:53:46;;;;;;;31.67;29.17;;;13.00;99.90;;;;;;4994344;28;20041;-73
2022/06/16 02:56:37;;;;;;;32.15;29.75;;;12.90;99.90;;;;;;4996783;28;20046;-73
2022/06/16 02:59:22;;;;;;;32.85;29.90;;;12.90;99.90;;;;;;5003405;28;20050;-73
2022/06/16 03:01:50;;;;;;;32.22;29.35;;;12.70;99.90;;;;;;5001969;28;20041;-73
2022/06/16 03:04:19;;;;;;;31.35;28.65;;;12.70;99.90;;;;;;5002140;28;20038;-73
2022/06/16 03:06:46;;;;;;;31.15;28.55;;;12.70;99.90;;;;;;5004080;28;20089;-73
2022/06/16 03:09:14;;;;;;;31.02;28.48;;;12.80;99.90;;;;;;4999580;28;20370;-72
2022/06/16 03:11:42;;;;;;;30.00;27.73;;;12.80;99.90;;;;;;4983031;28;20088;-73
2022/06/16 03:14:10;;;;;;;30.88;28.25;;;12.80;99.90;;;;;;4986756;28;20145;-72
2022/06/16 03:16:42;;;;;;;31.25;28.65;;;12.90;99.90;;;;;;4990762;28;20188;-73
2022/06/16 03:19:09;;;;;;;30.00;27.48;;;12.80;99.90;;;;;;4983872;28;20699;-73
2022/06/16 03:21:40;;;;;;;30.00;27.77;;;12.80;99.90;;;;;;4982018;28;20524;-73
2022/06/16 03:24:09;;;;;;;33.80;31.35;;;12.80;99.90;;;;;;4993585;28;20069;-73
2022/06/16 03:26:36;;;;;;;29.63;26.75;;;12.90;99.90;;;;;;4995628;28;20728;-74
2022/06/16 03:29:03;;;;;;;29.52;27.17;;;12.90;99.90;;;;;;4989934;28;20397;-73
2022/06/16 03:31:30;;;;;;;28.98;26.83;;;13.00;99.90;;;;;;4983456;28;20049;-73
2022/06/16 03:33:57;;;;;;;29.63;27.05;;;13.10;99.90;;;;;;4980989;28;20044;-73
2022/06/16 03:36:30;;;;;;;31.63;29.40;;;13.00;99.90;;;;;;4989737;28;20524;-73
2022/06/16 03:39:01;;;;;;;31.95;29.60;;;13.10;99.90;;;;;;5002703;28;20098;-73
2022/06/16 03:41:28;;;;;;;32.60;29.83;;;13.10;99.90;;;;;;4970127;28;20082;-73
2022/06/16 03:44:00;;;;;;;31.85;29.02;;;13.00;99.90;;;;;;4983165;28;20069;-73
2022/06/16 03:46:27;;;;;;;31.60;29.33;;;13.00;99.90;;;;;;4998540;28;20080;-73
2022/06/16 03:49:05;;;;;;;32.38;29.90;;;13.00;99.90;;;;;;5002212;28;20109;-73
2022/06/16 03:51:58;;;;;;;31.67;29.10;;;12.90;99.90;;;;;;5000085;28;20303;-73
2022/06/16 03:54:31;;;;;;;31.73;29.48;;;13.00;99.90;;;;;;4993363;28;20295;-73
2022/06/16 03:57:01;;;;;;;31.75;29.55;;;13.00;99.90;;;;;;4991993;28;20046;-73
2022/06/16 03:59:28;;;;;;;31.70;29.35;;;13.00;99.90;;;;;;4998615;28;20049;-73
2022/06/16 04:02:01;;;;;;;32.25;29.88;;;13.10;99.90;;;;;;4989571;28;20042;-73
2022/06/16 04:04:35;;;;;;;31.53;29.07;;;13.10;99.90;;;;;;5005855;28;20144;-73
2022/06/16 04:07:04;;;;;;;30.25;28.15;;;13.10;99.90;;;;;;5005459;28;20054;-73
2022/06/16 04:09:33;;;;;;;29.05;26.98;;;13.10;99.90;;;;;;4996838;28;20054;-73
2022/06/16 04:12:02;;;;;;;29.48;26.95;;;13.10;99.90;;;;;;5016742;28;20052;-73
2022/06/16 04:14:30;;;;;;;28.98;26.88;;;13.10;99.90;;;;;;5005289;28;20108;-73
2022/06/16 04:17:01;;;;;;;29.23;26.65;;;13.00;99.90;;;;;;5000526;28;20042;-73
2022/06/16 04:19:35;;;;;;;29.02;26.60;;;13.10;99.90;;;;;;4995224;28;20062;-73
2022/06/16 04:22:03;;;;;;;28.60;26.27;;;13.10;99.90;;;;;;4987753;28;20453;-73
2022/06/16 04:24:35;;;;;;;28.58;26.17;;;13.10;99.90;;;;;;4979977;28;20033;-73
2022/06/16 04:27:02;;;;;;;28.58;26.25;;;13.20;99.90;;;;;;5003740;28;20516;-73
2022/06/16 04:29:29;;;;;;;28.35;26.42;;;13.20;99.90;;;;;;5004782;28;20049;-73
2022/06/16 04:31:57;;;;;;;29.60;27.20;;;13.30;99.90;;;;;;5005117;28;20077;-73
2022/06/16 04:34:39;;;;;;;29.83;27.42;;;13.40;99.90;;;;;;5004418;28;20050;-73
2022/06/16 04:37:06;;;;;;;30.10;27.80;;;13.50;99.90;;;;;;5005049;28;20042;-72
2022/06/16 04:39:34;;;;;;;30.27;27.65;;;13.60;99.90;;;;;;4990023;28;20057;-72
2022/06/16 04:42:01;;;;;;;28.65;26.40;;;13.70;99.90;;;;;;5005883;28;20072;-72
2022/06/16 04:44:27;;;;;;;28.52;26.20;;;13.30;99.90;;;;;;5004426;28;20183;-73
2022/06/16 04:46:55;;;;;;;27.70;25.40;;;13.10;99.90;;;;;;4987007;28;20523;-73
2022/06/16 04:49:25;;;;;;;29.65;27.40;;;13.10;99.90;;;;;;4996072;28;20660;-73
2022/06/16 04:51:52;;;;;;;29.90;27.45;;;13.20;99.90;;;;;;5000840;28;20104;-73
2022/06/16 04:54:20;;;;;;;29.48;26.73;;;13.40;99.90;;;;;;4994781;28;20496;-73
2022/06/16 04:57:03;;;;;;;28.70;26.55;;;13.40;99.90;;;;;;4992954;28;20068;-73
2022/06/16 04:59:29;;;;;;;29.80;27.42;;;13.40;99.90;;;;;;5006869;28;20489;-73
2022/06/16 05:02:14;;;;;;;28.60;26.27;;;13.50;99.90;;;;;;4988840;28;20038;-73
2022/06/16 05:05:10;;;;;;;28.95;26.73;;;13.80;99.90;;;;;;5013589;28;20093;-73
2022/06/16 05:07:43;;;;;;;28.50;26.40;;;14.00;99.90;;;;;;5005811;28;20054;-73
2022/06/16 05:10:25;;;;;;;28.88;26.58;;;14.30;99.90;;;;;;5004778;28;20060;-73
2022/06/16 05:13:27;;;;;;;28.08;26.27;;;14.80;99.90;;;;;;4924992;29;20219;-73
2022/06/16 05:16:29;;;;;;;29.40;26.95;;;15.10;99.90;;;;;;4924130;29;20504;-73
2022/06/16 05:19:09;;;;;;;28.67;26.35;;;15.30;99.90;;;;;;4997236;28;20324;-73
2022/06/16 05:22:01;;;;;;;29.17;26.90;;;15.20;99.90;;;;;;4996088;28;20045;-73
2022/06/16 05:24:37;;;;;;;28.20;25.90;;;15.60;99.90;;;;;;5002144;28;20066;-73
2022/06/16 05:27:24;;;;;;;27.63;25.48;;;16.00;99.90;;;;;;5003547;28;20544;-73
2022/06/16 05:30:04;;;;;;;27.98;26.20;;;16.30;99.90;;;;;;5005522;28;20424;-73
2022/06/16 05:32:41;;;;;;;27.38;25.52;;;16.40;99.90;;;;;;4995228;28;20053;-73
2022/06/16 05:35:22;;;;;;;28.90;26.88;;;16.60;99.90;;;;;;4988793;28;20061;-73
2022/06/16 05:37:54;;;;;;;28.75;26.75;;;16.70;99.90;;;;;;4984978;28;20050;-73
2022/06/16 05:40:29;;;;;;;27.90;26.00;;;16.80;99.90;;;;;;5001206;28;20068;-73
2022/06/16 05:43:15;;;;;;;28.10;26.20;;;17.00;99.90;;;;;;5002081;28;20042;-73
2022/06/16 05:45:49;;;;;;;28.33;26.40;;;17.20;99.90;;;;;;4993432;28;20080;-73
2022/06/16 05:48:38;;;;;;;28.23;25.95;;;17.30;99.90;;;;;;5003910;28;20053;-72
2022/06/16 05:51:11;;;;;;;27.38;25.30;;;17.30;99.90;;;;;;4984997;28;20046;-73
2022/06/16 05:53:55;;;;;;;27.35;25.45;;;17.10;99.90;;;;;;4998412;28;20174;-73
2022/06/16 05:56:27;;;;;;;27.75;25.85;;;16.80;99.90;;;;;;4983070;28;20056;-73
2022/06/16 05:58:54;;;;;;;28.10;26.20;;;16.60;99.90;;;;;;4987800;28;20140;-73
2022/06/16 06:01:23;;;;;;;27.42;25.63;;;16.50;99.90;;;;;;5002911;28;20552;-73
2022/06/16 06:03:55;;;;;;;27.50;25.50;;;16.50;99.90;;;;;;5003020;28;20053;-73
2022/06/16 06:06:22;;;;;;;28.10;26.20;;;16.40;99.90;;;;;;5017270;28;20042;-73
2022/06/16 06:17:22;;;;;;;28.27;26.25;;;17.50;99.90;;;;;;4999266;28;20140;-73
2022/06/16 06:19:54;;;;;;;28.45;26.52;;;17.80;99.90;;;;;;5003923;28;20488;-73
2022/06/16 06:22:25;;;;;;;28.55;26.42;;;18.10;99.90;;;;;;4995307;28;20084;-72
2022/06/16 06:24:58;;;;;;;27.88;25.98;;;18.20;99.90;;;;;;4993037;28;20057;-73
2022/06/16 06:27:38;;;;;;;29.27;26.95;;;18.10;99.90;;;;;;5002205;28;20104;-73
2022/06/16 06:30:22;;;;;;;28.00;26.10;;;18.10;99.90;;;;;;5002581;28;20597;-71
2022/06/16 06:32:49;;;;;;;28.15;26.00;;;18.30;99.90;;;;;;4879330;22;20063;-76
2022/06/16 06:35:16;;;;;;;28.00;25.92;;;18.30;99.90;;;;;;5038830;28;20041;-76
2022/06/16 06:37:44;;;;;;;27.63;25.95;;;18.50;99.90;;;;;;5043251;28;20056;-75
2022/06/16 06:40:21;;;;;;;28.65;26.75;;;18.60;99.90;;;;;;5049608;28;20056;-75
2022/06/16 06:42:48;;;;;;;28.77;27.05;;;18.70;99.90;;;;;;5037461;28;20115;-76
2022/06/16 06:45:16;;;;;;;29.50;27.58;;;19.00;99.90;;;;;;5023785;28;20048;-76
2022/06/16 06:47:43;;;;;;;27.13;25.42;;;18.90;99.90;;;;;;5026624;28;20574;-77
2022/06/16 06:50:28;;;;;;;28.52;26.70;;;18.60;99.90;;;;;;5022299;28;20053;-74
2022/06/16 06:52:55;;;;;;;27.67;25.92;;;18.80;99.90;;;;;;5021523;28;20053;-76
2022/06/16 06:55:23;;;;;;;27.33;25.60;;;19.00;99.90;;;;;;5026287;28;20161;-77
2022/06/16 06:57:52;;;;;;;26.20;24.70;;;19.30;99.90;;;;;;5042398;28;20431;-75
2022/06/16 07:00:21;;;;;;;27.45;25.67;;;19.50;99.90;;;;;;5043649;28;20077;-76
2022/06/16 07:02:47;;;;;;;26.27;24.63;;;19.60;99.90;;;;;;5043138;28;20403;-76
2022/06/16 07:05:14;;;;;;;26.70;25.13;;;19.70;99.90;;;;;;5042975;28;20106;-75
2022/06/16 07:07:46;;;;;;;26.58;24.75;;;19.60;99.90;;;;;;5043761;28;20139;-76
2022/06/16 07:10:14;;;;;;;26.42;24.85;;;19.60;99.90;;;;;;5043013;28;20048;-76
2022/06/16 07:12:41;;;;;;;27.23;25.40;;;19.20;99.90;;;;;;5042534;28;20622;-75
2022/06/16 07:15:09;;;;;;;26.75;24.92;;;18.90;99.90;;;;;;5039000;28;20045;-74
2022/06/16 07:17:36;;;;;;;25.33;23.80;;;19.10;99.90;;;;;;5040265;28;20230;-74
2022/06/16 07:20:03;;;;;;;25.52;23.73;;;19.70;99.90;;;;;;5043589;28;20081;-74
2022/06/16 07:22:31;;;;;;;26.20;24.50;;;20.10;99.90;;;;;;5042154;28;20189;-75
2022/06/16 07:24:57;;;;;;;26.13;24.42;;;20.50;99.90;;;;;;5039834;28;20442;-76
2022/06/16 07:27:24;;;;;;;26.98;25.15;;;20.60;99.90;;;;;;5043113;28;20713;-76
2022/06/16 07:29:52;;;;;;;25.33;23.80;;;20.70;99.90;;;;;;5024726;28;20126;-76
2022/06/16 07:32:20;;;;;;;25.65;23.95;;;20.70;99.90;;;;;;5040983;28;20045;-73
2022/06/16 07:34:47;;;;;;;25.70;24.10;;;20.80;99.90;;;;;;5025380;28;20108;-74
2022/06/16 07:37:14;;;;;;;24.98;23.40;;;20.60;99.90;;;;;;5045928;28;20041;-74
2022/06/16 07:39:42;;;;;;;24.50;23.05;;;20.90;99.90;;;;;;5035699;28;20499;-74
2022/06/16 07:42:09;;;;;;;24.25;22.90;;;20.80;99.90;;;;;;5043534;28;20049;-74
2022/06/16 07:44:37;;;;;;;25.38;23.88;;;20.60;99.90;;;;;;5044914;28;20501;-75
2022/06/16 07:47:05;;;;;;;26.45;24.55;;;20.80;99.90;;;;;;5044851;28;20525;-76
2022/06/16 07:49:32;;;;;;;25.15;23.20;;;20.70;99.90;;;;;;5045362;28;20049;-75
2022/06/16 07:52:00;;;;;;;25.02;23.52;;;20.30;99.90;;;;;;5043318;28;20088;-73
2022/06/16 07:54:28;;;;;;;25.05;23.40;;;20.60;99.90;;;;;;5043594;28;20057;-74
2022/06/16 07:57:16;;;;;;;27.03;25.33;;;20.90;99.90;;;;;;5033209;28;20045;-75
2022/06/16 07:59:52;;;;;;;25.63;23.92;;;20.20;99.90;;;;;;5048137;28;20407;-77
2022/06/16 08:02:19;;;;;;;25.92;24.23;;;20.10;99.90;;;;;;5050153;28;20041;-77
2022/06/16 08:04:46;;;;;;;25.45;24.05;;;20.30;99.90;;;;;;5048303;28;20189;-77
2022/06/16 08:07:13;;;;;;;27.92;25.60;;;19.80;99.90;;;;;;5032733;28;20040;-77
2022/06/16 08:09:40;;;;;;;26.35;24.63;;;19.80;99.90;;;;;;5049716;28;20685;-77
2022/06/16 08:12:08;;;;;;;26.83;25.05;;;20.20;99.90;;;;;;5048985;28;20504;-77
2022/06/16 08:14:39;;;;;;;26.80;25.00;;;20.60;99.90;;;;;;5046238;28;20053;-74
2022/06/16 08:17:13;;;;;;;26.98;25.10;;;21.00;99.90;;;;;;5026845;28;20584;-74
2022/06/16 08:19:40;;;;;;;26.40;24.73;;;21.30;99.90;;;;;;5030863;28;20053;-74
2022/06/16 08:22:07;;;;;;;26.85;25.08;;;21.40;99.90;;;;;;5042902;28;20041;-74
2022/06/16 08:24:34;;;;;;;27.38;25.73;;;21.30;99.90;;;;;;5044033;28;20076;-73
2022/06/16 08:27:02;;;;;;;27.45;25.48;;;21.40;99.90;;;;;;5044375;28;20041;-75
2022/06/16 08:29:29;;;;;;;26.23;24.40;;;21.50;99.90;;;;;;5044145;28;20272;-74
2022/06/16 08:31:57;;;;;;;27.08;25.48;;;21.70;99.90;;;;;;5045516;28;20052;-75
2022/06/16 08:34:24;;;;;;;27.13;25.10;;;21.80;99.90;;;;;;5042936;28;20041;-75
2022/06/16 08:36:51;;;;;;;25.73;24.15;;;21.90;99.90;;;;;;5043719;28;20208;-74
2022/06/16 08:39:18;;;;;;;25.98;24.27;;;22.40;99.90;;;;;;5046919;28;20049;-74
2022/06/16 08:42:10;;;;;;;26.98;25.38;;;22.20;99.90;;;;;;5041689;28;20519;-75
2022/06/16 08:44:52;;;;;;;26.60;25.00;;;22.20;99.90;;;;;;5043061;28;20103;-75
2022/06/16 08:47:30;;;;;;;26.83;25.38;;;22.00;99.90;;;;;;5043177;28;20044;-74
2022/06/16 08:50:33;;;;;;;26.95;25.45;;;21.90;99.90;;;;;;5044043;28;20377;-75
2022/06/16 08:53:24;;;;;;;27.45;25.58;;;21.80;99.90;;;;;;5039394;28;20481;-74
2022/06/16 08:56:17;;;;;;;27.67;25.88;;;20.80;99.90;;;;;;5042605;28;20069;-76
2022/06/16 08:59:03;;;;;;;27.02;25.42;;;20.80;99.90;;;;;;5030271;28;20169;-75
2022/06/16 09:01:44;;;;;;;28.23;25.90;;;21.00;99.90;;;;;;5040774;28;20410;-75
2022/06/16 09:04:20;;;;;;;28.55;26.23;;;20.40;99.90;;;;;;5024096;28;20488;-75
2022/06/16 09:07:13;;;;;;;26.73;25.05;;;20.80;99.90;;;;;;5024599;28;20145;-75
2022/06/16 09:10:17;;;;;;;24.63;22.77;;;21.30;99.90;;;;;;5013185;28;20115;-75
2022/06/16 09:12:55;;;;;;;25.80;24.02;;;22.10;99.90;;;;;;5044738;28;20080;-75
2022/06/16 09:15:47;;;;;;;25.90;24.13;;;22.20;99.90;;;;;;5038401;28;20186;-75
2022/06/16 09:18:38;;;;;;;24.13;22.60;;;22.50;99.90;;;;;;5024614;28;20152;-76
2022/06/16 09:21:08;;;;;;;23.48;22.15;;;22.30;99.90;;;;;;5039683;28;20100;-76
2022/06/16 09:24:02;;;;;;;27.27;25.50;;;22.00;99.90;;;;;;5019358;28;20213;-75
2022/06/16 09:26:40;;;;;;;26.13;24.23;;;21.60;99.90;;;;;;5026465;28;20053;-76
2022/06/16 09:29:19;;;;;;;23.85;22.30;;;21.80;99.90;;;;;;5060683;28;20306;-75
2022/06/16 09:32:11;;;;;;;24.88;23.38;;;21.50;99.90;;;;;;5059810;28;20522;-76
2022/06/16 09:34:45;;;;;;;24.15;22.63;;;21.40;99.90;;;;;;5043388;28;20072;-75
2022/06/16 09:37:21;;;;;;;26.92;25.42;;;21.40;99.90;;;;;;5043632;28;20083;-74
2022/06/16 09:39:56;;;;;;;22.70;21.20;;;21.70;99.90;;;;;;5056212;28;20044;-76
2022/06/16 09:42:34;;;;;;;26.83;24.92;;;22.30;99.90;;;;;;5060151;28;20457;-74
2022/06/16 09:45:07;;;;;;;26.60;24.90;;;21.90;99.90;;;;;;5051315;28;20137;-75
2022/06/16 09:47:42;;;;;;;28.10;26.40;;;21.90;99.90;;;;;;5042696;28;20045;-74
2022/06/16 09:50:23;;;;;;;27.35;25.85;;;22.00;99.90;;;;;;5042657;28;20480;-76
2022/06/16 09:53:19;;;;;;;28.08;26.52;;;22.40;99.90;;;;;;5041720;28;20598;-75
2022/06/16 09:55:54;;;;;;;28.20;26.50;;;22.40;99.90;;;;;;5043147;28;20055;-75
2022/06/16 09:58:36;;;;;;;29.35;27.52;;;22.90;99.90;;;;;;5055648;28;20594;-75
2022/06/16 10:01:08;;;;;;;27.80;26.10;;;22.90;99.90;;;;;;5041583;28;20049;-75
2022/06/16 10:04:00;;;;;;;27.38;25.60;;;22.70;99.90;;;;;;5038046;28;20061;-75
2022/06/16 10:06:36;;;;;;;28.23;26.55;;;22.90;99.90;;;;;;5042784;28;20103;-76
2022/06/16 10:09:21;;;;;;;28.00;26.50;;;22.80;99.90;;;;;;5042284;28;20048;-75
2022/06/16 10:12:12;;;;;;;28.67;26.90;;;22.60;99.90;;;;;;5042311;28;20566;-75
2022/06/16 10:15:16;;;;;;;29.50;27.40;;;22.70;99.90;;;;;;5041719;28;20052;-76
2022/06/16 10:17:46;;;;;;;27.85;26.33;;;22.70;99.90;;;;;;5024449;28;20202;-76
2022/06/16 10:20:15;;;;;;;28.02;26.52;;;22.60;99.90;;;;;;5021618;28;20530;-75
2022/06/16 10:22:52;;;;;;;28.63;26.98;;;22.70;99.90;;;;;;5032545;28;20095;-75
2022/06/16 10:25:55;;;;;;;28.60;26.90;;;22.90;99.90;;;;;;5040624;28;20083;-75
2022/06/16 10:28:30;;;;;;;29.38;27.80;;;23.10;99.90;;;;;;4993025;28;20088;-76
2022/06/16 10:30:59;;;;;;;30.20;28.60;;;23.10;99.90;;;;;;5040026;28;20495;-75
2022/06/16 10:33:33;;;;;;;30.08;28.48;;;23.30;99.90;;;;;;5039979;28;20057;-74
2022/06/16 10:36:19;;;;;;;29.35;27.95;;;23.00;99.90;;;;;;5026579;28;20041;-76
2022/06/16 10:39:18;;;;;;;29.42;27.73;;;22.80;99.90;;;;;;5043624;28;20048;-76
2022/06/16 10:42:12;;;;;;;29.90;28.30;;;23.20;99.90;;;;;;5060901;28;20494;-75
2022/06/16 10:44:40;;;;;;;29.50;27.90;;;23.10;99.90;;;;;;5049125;28;20052;-75
2022/06/16 10:47:21;;;;;;;31.40;29.40;;;22.50;99.90;;;;;;5039829;28;20291;-74
2022/06/16 10:49:50;;;;;;;29.25;27.55;;;22.90;99.90;;;;;;5039377;28;20150;-75
2022/06/16 10:52:39;;;;;;;29.58;27.98;;;23.20;99.90;;;;;;5040559;28;20041;-75
2022/06/16 10:55:09;;;;;;;28.05;26.60;;;23.30;99.90;;;;;;5037184;28;20118;-74
2022/06/16 10:57:46;;;;;;;29.38;27.65;;;23.70;99.90;;;;;;5042027;28;20142;-75
2022/06/16 11:00:19;;;;;;;28.20;26.45;;;23.80;99.90;;;;;;5041020;28;20548;-75
2022/06/16 11:02:58;;;;;;;29.02;27.50;;;23.60;99.90;;;;;;5023978;28;20044;-74
2022/06/16 11:05:27;;;;;;;28.77;27.38;;;23.90;99.90;;;;;;5042473;28;20040;-75
2022/06/16 11:08:11;;;;;;;29.50;28.00;;;23.90;99.90;;;;;;5042040;28;20048;-75
2022/06/16 11:10:59;;;;;;;28.15;26.35;;;23.70;99.90;;;;;;5039553;28;20411;-75
2022/06/16 11:13:32;;;;;;;29.70;28.08;;;23.50;99.90;;;;;;5040238;28;20100;-75
2022/06/16 11:15:59;;;;;;;30.45;28.95;;;24.00;99.90;;;;;;5040737;28;20126;-76
2022/06/16 11:18:29;;;;;;;31.77;29.63;;;24.10;97.90;;;;;;5040375;28;20041;-75
2022/06/16 11:20:58;;;;;;;31.25;29.52;;;24.00;97.60;;;;;;5042743;28;20045;-75
2022/06/16 11:23:33;;;;;;;29.92;28.30;;;24.20;98.10;;;;;;5042286;28;20080;-75
2022/06/16 11:26:28;;;;;;;29.55;28.15;;;24.30;97.50;;;;;;5037817;28;20099;-76
2022/06/16 11:29:01;;;;;;;29.65;28.25;;;24.30;99.00;;;;;;5042297;28;20152;-75
2022/06/16 11:31:39;;;;;;;30.70;29.05;;;24.00;98.10;;;;;;5041616;28;20067;-74
2022/06/16 11:34:19;;;;;;;28.90;27.40;;;23.90;98.30;;;;;;5040465;28;20056;-76
2022/06/16 11:37:07;;;;;;;28.73;27.33;;;23.90;99.80;;;;;;5041871;28;20056;-75
2022/06/16 11:39:55;;;;;;;28.85;27.40;;;24.00;98.80;;;;;;5051281;28;20387;-74
2022/06/16 11:42:59;;;;;;;30.52;28.90;;;24.00;98.60;;;;;;5061500;28;20051;-75
2022/06/16 11:45:47;;;;;;;29.02;27.63;;;23.50;98.90;;;;;;5060431;28;20068;-76
2022/06/16 11:48:51;;;;;;;30.67;29.08;;;23.60;98.00;;;;;;5058100;28;20048;-76
2022/06/16 11:51:27;;;;;;;29.05;27.55;;;23.30;98.80;;;;;;5030755;28;20701;-75
2022/06/16 11:54:20;;;;;;;27.98;26.58;;;23.70;99.60;;;;;;5041274;28;20052;-75
2022/06/16 11:57:04;;;;;;;28.40;26.73;;;23.90;98.20;;;;;;5050768;28;20144;-76
2022/06/16 11:59:46;;;;;;;29.10;27.63;;;24.10;96.60;;;;;;5041010;28;20041;-75
2022/06/16 12:02:28;;;;;;;29.27;27.67;;;24.20;98.00;;;;;;5040717;28;20283;-75
2022/06/16 12:05:09;;;;;;;30.08;28.48;;;24.20;97.20;;;;;;5040771;28;20549;-76
2022/06/16 12:07:41;;;;;;;27.92;26.63;;;24.30;96.30;;;;;;5040649;28;20131;-76
2022/06/16 12:10:25;;;;;;;29.08;27.67;;;24.20;96.90;;;;;;5023165;28;20057;-75
2022/06/16 12:12:57;;;;;;;30.27;28.73;;;24.10;97.90;;;;;;5040482;28;20061;-75
2022/06/16 12:15:33;;;;;;;29.40;28.02;;;24.10;97.70;;;;;;5039173;28;20163;-77
2022/06/16 12:18:18;;;;;;;27.15;25.75;;;24.20;96.00;;;;;;5039892;28;20048;-76
2022/06/16 12:21:09;;;;;;;29.02;27.63;;;23.80;96.50;;;;;;5039907;28;20053;-74
2022/06/16 12:24:06;;;;;;;29.85;28.25;;;23.70;96.80;;;;;;5038415;28;20493;-75
2022/06/16 12:26:55;;;;;;;29.77;28.23;;;24.00;97.70;;;;;;5040515;28;20102;-75
2022/06/16 12:29:39;;;;;;;29.60;28.20;;;24.00;94.20;;;;;;5044263;28;20060;-76
2022/06/16 12:32:06;;;;;;;29.27;27.85;;;24.00;96.00;;;;;;5045105;28;20551;-76
2022/06/16 12:34:39;;;;;;;30.23;28.73;;;24.20;95.40;;;;;;5028127;28;20423;-76
2022/06/16 12:37:12;;;;;;;29.88;28.48;;;24.20;93.40;;;;;;5043493;28;20098;-74
2022/06/16 12:40:16;;;;;;;29.63;28.13;;;23.80;95.80;;;;;;5053099;28;20044;-75
2022/06/16 12:42:55;;;;;;;29.25;27.85;;;24.00;96.50;;;;;;5038158;28;20087;-75
2022/06/16 12:45:29;;;;;;;29.58;28.08;;;24.40;95.30;;;;;;5043462;28;20065;-75
2022/06/16 12:48:02;;;;;;;29.55;28.15;;;24.40;94.70;;;;;;5043764;28;20049;-76
2022/06/16 12:50:42;;;;;;;30.50;28.48;;;24.30;95.10;;;;;;5045537;28;20036;-76
2022/06/16 12:53:20;;;;;;;30.23;28.63;;;24.20;94.70;;;;;;5039852;28;20418;-75
2022/06/16 12:55:53;;;;;;;30.15;28.50;;;24.00;94.60;;;;;;5041600;28;20065;-76
2022/06/16 12:58:29;;;;;;;28.60;27.20;;;23.90;94.50;;;;;;5026432;28;20704;-76
2022/06/16 13:01:02;;;;;;;30.40;28.70;;;24.10;94.60;;;;;;5046983;28;20037;-75
2022/06/16 13:03:31;;;;;;;30.20;28.60;;;23.90;94.90;;;;;;5041795;28;20290;-75
2022/06/16 13:05:59;;;;;;;29.15;27.52;;;23.90;94.10;;;;;;5042643;28;20069;-74
2022/06/16 13:08:29;;;;;;;28.77;27.17;;;23.70;94.00;;;;;;5045255;28;20037;-76
2022/06/16 13:11:03;;;;;;;28.83;27.35;;;23.70;95.20;;;;;;5043055;28;20589;-76
2022/06/16 13:13:36;;;;;;;29.05;27.45;;;24.20;95.50;;;;;;5043004;28;20053;-76
2022/06/16 13:16:07;;;;;;;28.27;26.77;;;24.40;94.00;;;;;;5041520;28;20049;-76
2022/06/16 13:19:13;;;;;;;26.88;25.55;;;24.10;93.80;;;;;;5043378;28;20080;-76
2022/06/16 13:21:47;;;;;;;28.38;26.98;;;24.10;95.20;;;;;;5012177;28;20037;-76
2022/06/16 13:24:22;;;;;;;27.98;26.48;;;24.40;95.60;;;;;;5043979;28;20490;-76
2022/06/16 13:27:10;;;;;;;27.50;26.08;;;24.60;95.60;;;;;;5027038;28;20114;-77
2022/06/16 13:29:49;;;;;;;28.13;26.60;;;24.10;95.40;;;;;;5044748;28;20057;-75